sensor_id;sensor_type;location;lat;lon;timestamp;pressure;altitude;pressure_sealevel;temperature;humidity
68197;BME280;55019;49.382;11.358;2023-03-17T00:00:12;96614.56;;;2.51;57.57
68197;BME280;55019;49.382;11.358;2023-03-17T00:02:39;96602.97;;;2.47;57.28
68197;BME280;55019;49.382;11.358;2023-03-17T00:05:36;96605.75;;;2.55;56.81
68197;BME280;55019;49.382;11.358;2023-03-17T00:08:09;96612.91;;;2.39;57.32
68197;BME280;55019;49.382;11.358;2023-03-17T00:10:37;96607.34;;;2.34;57.71
68197;BME280;55019;49.382;11.358;2023-03-17T00:13:03;96607.00;;;2.38;56.39
68197;BME280;55019;49.382;11.358;2023-03-17T00:15:30;96598.78;;;2.35;57.00
68197;BME280;55019;49.382;11.358;2023-03-17T00:17:56;96595.75;;;2.30;56.58
68197;BME280;55019;49.382;11.358;2023-03-17T00:20:27;96600.03;;;2.29;55.80
68197;BME280;55019;49.382;11.358;2023-03-17T00:22:54;96593.97;;;2.19;57.32
68197;BME280;55019;49.382;11.358;2023-03-17T00:25:26;96579.25;;;2.23;56.60
68197;BME280;55019;49.382;11.358;2023-03-17T00:27:53;96588.97;;;2.18;55.92
68197;BME280;55019;49.382;11.358;2023-03-17T00:30:20;96605.03;;;2.31;56.21
68197;BME280;55019;49.382;11.358;2023-03-17T00:32:52;96596.06;;;2.25;56.11
68197;BME280;55019;49.382;11.358;2023-03-17T00:35:25;96584.94;;;2.15;56.50
68197;BME280;55019;49.382;11.358;2023-03-17T00:37:53;96599.53;;;2.13;55.74
68197;BME280;55019;49.382;11.358;2023-03-17T00:40:21;96589.09;;;2.16;56.00
68197;BME280;55019;49.382;11.358;2023-03-17T00:42:48;96589.69;;;2.20;57.21
68197;BME280;55019;49.382;11.358;2023-03-17T00:45:14;96562.09;;;2.25;56.71
68197;BME280;55019;49.382;11.358;2023-03-17T00:47:40;96578.81;;;2.29;56.44
68197;BME280;55019;49.382;11.358;2023-03-17T00:50:10;96578.81;;;2.29;56.05
68197;BME280;55019;49.382;11.358;2023-03-17T00:52:37;96566.78;;;2.31;57.40
68197;BME280;55019;49.382;11.358;2023-03-17T00:55:05;96562.47;;;2.31;56.25
68197;BME280;55019;49.382;11.358;2023-03-17T00:57:31;96560.06;;;2.30;56.14
68197;BME280;55019;49.382;11.358;2023-03-17T00:59:57;96556.78;;;2.17;56.13
68197;BME280;55019;49.382;11.358;2023-03-17T01:02:22;96543.84;;;2.31;56.43
68197;BME280;55019;49.382;11.358;2023-03-17T01:04:48;96549.66;;;2.44;55.90
68197;BME280;55019;49.382;11.358;2023-03-17T01:07:14;96542.78;;;2.44;55.54
68197;BME280;55019;49.382;11.358;2023-03-17T01:09:41;96530.97;;;2.43;55.79
68197;BME280;55019;49.382;11.358;2023-03-17T01:12:11;96529.72;;;2.38;56.11
68197;BME280;55019;49.382;11.358;2023-03-17T01:14:37;96532.72;;;2.43;57.55
68197;BME280;55019;49.382;11.358;2023-03-17T01:17:11;96539.88;;;2.27;56.74
68197;BME280;55019;49.382;11.358;2023-03-17T01:19:38;96537.81;;;2.43;56.80
68197;BME280;55019;49.382;11.358;2023-03-17T01:22:04;96525.06;;;2.43;57.29
68197;BME280;55019;49.382;11.358;2023-03-17T01:24:29;96529.66;;;2.27;56.02
68197;BME280;55019;49.382;11.358;2023-03-17T01:26:56;96513.94;;;2.33;56.35
68197;BME280;55019;49.382;11.358;2023-03-17T01:29:22;96517.19;;;2.35;55.18
68197;BME280;55019;49.382;11.358;2023-03-17T01:31:47;96507.41;;;2.29;56.21
68197;BME280;55019;49.382;11.358;2023-03-17T01:34:13;96509.28;;;2.27;56.42
68197;BME280;55019;49.382;11.358;2023-03-17T01:36:41;96505.47;;;2.21;55.77
68197;BME280;55019;49.382;11.358;2023-03-17T01:39:07;96504.88;;;2.18;56.71
68197;BME280;55019;49.382;11.358;2023-03-17T01:41:35;96511.50;;;2.20;56.09
68197;BME280;55019;49.382;11.358;2023-03-17T01:44:02;96499.78;;;2.18;55.09
68197;BME280;55019;49.382;11.358;2023-03-17T01:46:30;96504.41;;;2.13;55.78
68197;BME280;55019;49.382;11.358;2023-03-17T01:49:06;96506.16;;;2.12;55.86
68197;BME280;55019;49.382;11.358;2023-03-17T01:54:34;96496.06;;;2.22;56.50
68197;BME280;55019;49.382;11.358;2023-03-17T02:02:27;96493.75;;;2.08;55.96
68197;BME280;55019;49.382;11.358;2023-03-17T02:04:54;96480.91;;;2.20;57.09
68197;BME280;55019;49.382;11.358;2023-03-17T02:07:22;96495.38;;;2.09;56.20
68197;BME280;55019;49.382;11.358;2023-03-17T02:09:52;96495.38;;;2.09;56.57
68197;BME280;55019;49.382;11.358;2023-03-17T02:12:20;96490.41;;;2.07;57.12
68197;BME280;55019;49.382;11.358;2023-03-17T02:14:48;96485.41;;;2.06;57.13
68197;BME280;55019;49.382;11.358;2023-03-17T02:17:14;96481.69;;;2.10;58.63
68197;BME280;55019;49.382;11.358;2023-03-17T02:19:41;96482.75;;;2.07;57.85
68197;BME280;55019;49.382;11.358;2023-03-17T02:22:07;96490.03;;;2.01;58.70
68197;BME280;55019;49.382;11.358;2023-03-17T02:24:52;96485.63;;;1.92;60.08
68197;BME280;55019;49.382;11.358;2023-03-17T02:27:30;96488.72;;;1.95;58.31
68197;BME280;55019;49.382;11.358;2023-03-17T02:29:58;96480.75;;;2.00;59.51
68197;BME280;55019;49.382;11.358;2023-03-17T02:32:24;96488.16;;;2.03;59.09
68197;BME280;55019;49.382;11.358;2023-03-17T02:34:50;96476.59;;;1.99;58.53
68197;BME280;55019;49.382;11.358;2023-03-17T02:37:17;96473.91;;;2.00;59.18
68197;BME280;55019;49.382;11.358;2023-03-17T02:39:44;96474.19;;;2.08;59.46
68197;BME280;55019;49.382;11.358;2023-03-17T02:42:11;96469.31;;;2.05;59.68
68197;BME280;55019;49.382;11.358;2023-03-17T02:44:38;96464.22;;;2.05;59.32
68197;BME280;55019;49.382;11.358;2023-03-17T02:47:04;96465.34;;;2.01;59.04
68197;BME280;55019;49.382;11.358;2023-03-17T02:49:31;96455.50;;;1.97;59.92
68197;BME280;55019;49.382;11.358;2023-03-17T02:51:58;96452.34;;;1.93;58.89
68197;BME280;55019;49.382;11.358;2023-03-17T02:54:24;96452.13;;;1.85;59.70
68197;BME280;55019;49.382;11.358;2023-03-17T02:56:50;96449.00;;;1.82;60.54
68197;BME280;55019;49.382;11.358;2023-03-17T02:59:16;96456.75;;;1.91;60.57
68197;BME280;55019;49.382;11.358;2023-03-17T03:01:41;96456.91;;;2.01;60.74
68197;BME280;55019;49.382;11.358;2023-03-17T03:04:07;96453.44;;;2.02;60.01
68197;BME280;55019;49.382;11.358;2023-03-17T03:06:34;96461.06;;;1.91;60.79
68197;BME280;55019;49.382;11.358;2023-03-17T03:09:01;96457.34;;;1.84;60.73
68197;BME280;55019;49.382;11.358;2023-03-17T03:11:28;96448.41;;;1.89;60.49
68197;BME280;55019;49.382;11.358;2023-03-17T03:13:54;96460.22;;;1.90;60.15
68197;BME280;55019;49.382;11.358;2023-03-17T03:16:20;96453.75;;;1.86;61.03
68197;BME280;55019;49.382;11.358;2023-03-17T03:18:46;96447.88;;;1.97;60.17
68197;BME280;55019;49.382;11.358;2023-03-17T03:21:12;96445.66;;;1.92;60.35
68197;BME280;55019;49.382;11.358;2023-03-17T03:23:38;96432.09;;;1.92;61.04
68197;BME280;55019;49.382;11.358;2023-03-17T03:26:04;96439.84;;;1.90;61.06
68197;BME280;55019;49.382;11.358;2023-03-17T03:28:29;96447.88;;;1.97;61.20
68197;BME280;55019;49.382;11.358;2023-03-17T03:30:56;96450.63;;;1.83;60.72
68197;BME280;55019;49.382;11.358;2023-03-17T03:33:22;96443.31;;;1.67;60.09
68197;BME280;55019;49.382;11.358;2023-03-17T03:35:47;96452.44;;;1.70;60.51
68197;BME280;55019;49.382;11.358;2023-03-17T03:38:14;96450.81;;;1.69;60.83
68197;BME280;55019;49.382;11.358;2023-03-17T03:40:39;96457.06;;;1.76;61.17
68197;BME280;55019;49.382;11.358;2023-03-17T03:43:05;96446.06;;;1.64;59.56
68197;BME280;55019;49.382;11.358;2023-03-17T03:45:31;96429.41;;;1.71;59.82
68197;BME280;55019;49.382;11.358;2023-03-17T03:47:57;96440.78;;;1.78;60.56
68197;BME280;55019;49.382;11.358;2023-03-17T03:50:23;96433.19;;;1.55;59.82
68197;BME280;55019;49.382;11.358;2023-03-17T03:52:49;96442.25;;;1.70;60.36
68197;BME280;55019;49.382;11.358;2023-03-17T03:55:15;96447.25;;;1.82;61.10
68197;BME280;55019;49.382;11.358;2023-03-17T03:57:41;96447.09;;;1.73;59.56
68197;BME280;55019;49.382;11.358;2023-03-17T04:00:09;96437.53;;;1.76;59.70
68197;BME280;55019;49.382;11.358;2023-03-17T04:02:38;96447.09;;;1.62;59.97
68197;BME280;55019;49.382;11.358;2023-03-17T04:05:03;96440.63;;;1.69;59.51
68197;BME280;55019;49.382;11.358;2023-03-17T04:07:31;96433.59;;;1.72;58.89
68197;BME280;55019;49.382;11.358;2023-03-17T04:09:57;96438.31;;;1.77;60.28
68197;BME280;55019;49.382;11.358;2023-03-17T04:12:24;96426.97;;;1.70;59.81
68197;BME280;55019;49.382;11.358;2023-03-17T04:14:50;96430.78;;;1.64;60.33
68197;BME280;55019;49.382;11.358;2023-03-17T04:17:15;96426.16;;;1.58;58.56
68197;BME280;55019;49.382;11.358;2023-03-17T04:19:41;96422.56;;;1.61;60.00
68197;BME280;55019;49.382;11.358;2023-03-17T04:22:09;96432.97;;;1.69;59.11
68197;BME280;55019;49.382;11.358;2023-03-17T04:24:36;96433.13;;;1.67;59.61
68197;BME280;55019;49.382;11.358;2023-03-17T04:27:02;96426.94;;;1.59;59.76
68197;BME280;55019;49.382;11.358;2023-03-17T04:29:29;96438.66;;;1.61;60.07
68197;BME280;55019;49.382;11.358;2023-03-17T04:31:54;96437.13;;;1.59;59.40
68197;BME280;55019;49.382;11.358;2023-03-17T04:34:20;96442.03;;;1.73;59.31
68197;BME280;55019;49.382;11.358;2023-03-17T04:36:47;96437.75;;;1.73;59.97
68197;BME280;55019;49.382;11.358;2023-03-17T04:39:14;96434.44;;;1.49;59.44
68197;BME280;55019;49.382;11.358;2023-03-17T04:41:40;96430.50;;;1.45;58.61
68197;BME280;55019;49.382;11.358;2023-03-17T04:44:06;96430.63;;;1.44;58.71
68197;BME280;55019;49.382;11.358;2023-03-17T04:46:33;96428.09;;;1.55;58.85
68197;BME280;55019;49.382;11.358;2023-03-17T04:48:59;96430.56;;;1.67;59.04
68197;BME280;55019;49.382;11.358;2023-03-17T04:51:25;96426.41;;;1.66;59.27
68197;BME280;55019;49.382;11.358;2023-03-17T04:53:51;96422.94;;;1.67;58.26
68197;BME280;55019;49.382;11.358;2023-03-17T04:56:17;96432.19;;;1.68;57.99
68197;BME280;55019;49.382;11.358;2023-03-17T04:58:43;96431.25;;;1.69;58.65
68197;BME280;55019;49.382;11.358;2023-03-17T05:01:09;96426.16;;;1.58;58.53
68197;BME280;55019;49.382;11.358;2023-03-17T05:03:35;96420.22;;;1.58;58.55
68197;BME280;55019;49.382;11.358;2023-03-17T05:06:02;96425.00;;;1.62;59.54
68197;BME280;55019;49.382;11.358;2023-03-17T05:08:28;96428.56;;;1.60;58.52
68197;BME280;55019;49.382;11.358;2023-03-17T05:10:55;96426.25;;;1.57;58.68
68197;BME280;55019;49.382;11.358;2023-03-17T05:13:22;96429.03;;;1.65;58.69
68197;BME280;55019;49.382;11.358;2023-03-17T05:15:49;96423.84;;;1.66;58.99
68197;BME280;55019;49.382;11.358;2023-03-17T05:18:16;96418.53;;;1.80;59.21
68197;BME280;55019;49.382;11.358;2023-03-17T05:20:43;96416.69;;;1.82;59.05
68197;BME280;55019;49.382;11.358;2023-03-17T05:23:09;96418.16;;;1.74;58.07
68197;BME280;55019;49.382;11.358;2023-03-17T05:25:34;96424.78;;;1.76;59.14
68197;BME280;55019;49.382;11.358;2023-03-17T05:28:01;96425.34;;;1.69;59.38
68197;BME280;55019;49.382;11.358;2023-03-17T05:30:27;96414.13;;;1.71;59.25
68197;BME280;55019;49.382;11.358;2023-03-17T05:32:53;96410.88;;;1.69;58.17
68197;BME280;55019;49.382;11.358;2023-03-17T05:35:19;96406.59;;;1.70;58.61
68197;BME280;55019;49.382;11.358;2023-03-17T05:37:45;96402.41;;;1.69;57.68
68197;BME280;55019;49.382;11.358;2023-03-17T05:40:11;96401.25;;;1.73;58.55
68197;BME280;55019;49.382;11.358;2023-03-17T05:42:39;96406.28;;;1.85;58.33
68197;BME280;55019;49.382;11.358;2023-03-17T05:45:06;96403.38;;;1.79;58.50
68197;BME280;55019;49.382;11.358;2023-03-17T05:47:32;96400.34;;;1.74;58.84
68197;BME280;55019;49.382;11.358;2023-03-17T05:49:59;96398.72;;;1.73;57.73
68197;BME280;55019;49.382;11.358;2023-03-17T05:52:25;96404.28;;;1.78;57.67
68197;BME280;55019;49.382;11.358;2023-03-17T05:54:51;96396.91;;;1.86;57.63
68197;BME280;55019;49.382;11.358;2023-03-17T05:57:18;96410.91;;;1.91;57.74
68197;BME280;55019;49.382;11.358;2023-03-17T05:59:43;96406.88;;;1.89;56.95
68197;BME280;55019;49.382;11.358;2023-03-17T06:02:10;96412.19;;;1.86;57.46
68197;BME280;55019;49.382;11.358;2023-03-17T06:04:36;96411.97;;;1.89;57.92
68197;BME280;55019;49.382;11.358;2023-03-17T06:07:02;96406.41;;;1.95;56.56
68197;BME280;55019;49.382;11.358;2023-03-17T06:09:29;96399.91;;;2.02;57.01
68197;BME280;55019;49.382;11.358;2023-03-17T06:11:55;96394.91;;;2.00;57.23
68197;BME280;55019;49.382;11.358;2023-03-17T06:14:22;96389.16;;;2.09;57.30
68197;BME280;55019;49.382;11.358;2023-03-17T06:16:48;96392.72;;;2.07;56.65
68197;BME280;55019;49.382;11.358;2023-03-17T06:19:14;96392.28;;;2.02;56.23
68197;BME280;55019;49.382;11.358;2023-03-17T06:21:39;96393.41;;;2.20;55.60
68197;BME280;55019;49.382;11.358;2023-03-17T06:24:06;96395.25;;;2.29;55.83
68197;BME280;55019;49.382;11.358;2023-03-17T06:26:32;96393.78;;;2.26;55.74
68197;BME280;55019;49.382;11.358;2023-03-17T06:28:57;96400.16;;;2.32;54.54
68197;BME280;55019;49.382;11.358;2023-03-17T06:31:23;96392.25;;;2.46;55.02
68197;BME280;55019;49.382;11.358;2023-03-17T06:33:49;96386.66;;;2.52;54.26
68197;BME280;55019;49.382;11.358;2023-03-17T06:36:15;96388.94;;;2.66;53.92
68197;BME280;55019;49.382;11.358;2023-03-17T06:38:41;96365.88;;;2.67;53.97
68197;BME280;55019;49.382;11.358;2023-03-17T06:41:08;96388.56;;;2.81;55.25
68197;BME280;55019;49.382;11.358;2023-03-17T06:43:34;96387.34;;;2.96;54.56
68197;BME280;55019;49.382;11.358;2023-03-17T06:46:00;96384.00;;;2.95;54.68
68197;BME280;55019;49.382;11.358;2023-03-17T06:48:26;96379.50;;;2.88;54.33
68197;BME280;55019;49.382;11.358;2023-03-17T06:50:53;96385.13;;;3.02;54.85
68197;BME280;55019;49.382;11.358;2023-03-17T06:53:19;96384.38;;;3.11;55.05
68197;BME280;55019;49.382;11.358;2023-03-17T06:55:46;96372.81;;;3.07;54.88
68197;BME280;55019;49.382;11.358;2023-03-17T06:58:12;96378.50;;;3.11;54.65
68197;BME280;55019;49.382;11.358;2023-03-17T07:00:40;96386.69;;;3.14;54.15
68197;BME280;55019;49.382;11.358;2023-03-17T07:03:06;96386.19;;;3.20;54.05
68197;BME280;55019;49.382;11.358;2023-03-17T07:05:32;96395.19;;;3.35;53.34
68197;BME280;55019;49.382;11.358;2023-03-17T07:07:58;96403.81;;;3.34;53.84
68197;BME280;55019;49.382;11.358;2023-03-17T07:10:23;96411.41;;;3.45;54.22
68197;BME280;55019;49.382;11.358;2023-03-17T07:12:49;96407.34;;;3.63;52.43
68197;BME280;55019;49.382;11.358;2023-03-17T07:15:15;96409.78;;;3.85;52.64
68197;BME280;55019;49.382;11.358;2023-03-17T07:17:42;96410.47;;;4.17;51.81
68197;BME280;55019;49.382;11.358;2023-03-17T07:20:08;96421.00;;;4.33;50.94
68197;BME280;55019;49.382;11.358;2023-03-17T07:22:35;96411.59;;;4.33;51.15
68197;BME280;55019;49.382;11.358;2023-03-17T07:25:00;96421.94;;;4.32;51.71
68197;BME280;55019;49.382;11.358;2023-03-17T07:27:26;96425.91;;;4.45;50.42
68197;BME280;55019;49.382;11.358;2023-03-17T07:29:52;96422.66;;;4.34;50.58
68197;BME280;55019;49.382;11.358;2023-03-17T07:32:18;96433.53;;;4.26;51.44
68197;BME280;55019;49.382;11.358;2023-03-17T07:34:44;96433.13;;;4.31;51.31
68197;BME280;55019;49.382;11.358;2023-03-17T07:37:10;96425.94;;;4.55;51.71
68197;BME280;55019;49.382;11.358;2023-03-17T07:39:37;96421.88;;;4.92;50.87
68197;BME280;55019;49.382;11.358;2023-03-17T07:42:03;96425.78;;;5.05;48.39
68197;BME280;55019;49.382;11.358;2023-03-17T07:44:29;96424.34;;;5.41;49.57
68197;BME280;55019;49.382;11.358;2023-03-17T07:46:55;96415.16;;;5.29;49.71
68197;BME280;55019;49.382;11.358;2023-03-17T07:49:21;96407.13;;;6.07;47.25
68197;BME280;55019;49.382;11.358;2023-03-17T07:51:47;96407.44;;;6.31;48.25
68197;BME280;55019;49.382;11.358;2023-03-17T07:54:13;96400.47;;;6.51;45.96
68197;BME280;55019;49.382;11.358;2023-03-17T07:56:40;96405.81;;;6.67;45.78
68197;BME280;55019;49.382;11.358;2023-03-17T07:59:07;96410.69;;;6.60;45.98
68197;BME280;55019;49.382;11.358;2023-03-17T08:01:33;96405.34;;;6.98;45.00
68197;BME280;55019;49.382;11.358;2023-03-17T08:03:59;96398.59;;;6.97;44.01
68197;BME280;55019;49.382;11.358;2023-03-17T08:06:26;96395.81;;;7.25;44.78
68197;BME280;55019;49.382;11.358;2023-03-17T08:08:54;96392.22;;;8.04;43.14
68197;BME280;55019;49.382;11.358;2023-03-17T08:11:21;96388.09;;;8.70;41.41
68197;BME280;55019;49.382;11.358;2023-03-17T08:13:47;96393.13;;;8.46;41.76
68197;BME280;55019;49.382;11.358;2023-03-17T08:16:14;96388.88;;;8.70;42.12
68197;BME280;55019;49.382;11.358;2023-03-17T08:18:40;96385.94;;;8.57;41.13
68197;BME280;55019;49.382;11.358;2023-03-17T08:21:06;96386.53;;;8.93;42.97
68197;BME280;55019;49.382;11.358;2023-03-17T08:23:32;96388.94;;;10.38;40.67
68197;BME280;55019;49.382;11.358;2023-03-17T08:25:59;96396.03;;;10.44;39.01
68197;BME280;55019;49.382;11.358;2023-03-17T08:28:26;96386.47;;;10.91;38.16
68197;BME280;55019;49.382;11.358;2023-03-17T08:30:52;96379.34;;;10.16;38.47
68197;BME280;55019;49.382;11.358;2023-03-17T08:33:19;96383.88;;;10.99;39.03
68197;BME280;55019;49.382;11.358;2023-03-17T08:35:45;96384.97;;;10.66;38.06
68197;BME280;55019;49.382;11.358;2023-03-17T08:38:11;96365.81;;;9.82;40.36
68197;BME280;55019;49.382;11.358;2023-03-17T08:40:37;96373.38;;;9.92;41.45
68197;BME280;55019;49.382;11.358;2023-03-17T08:43:04;96375.13;;;10.23;38.62
68197;BME280;55019;49.382;11.358;2023-03-17T08:45:30;96372.78;;;10.44;39.12
68197;BME280;55019;49.382;11.358;2023-03-17T08:47:56;96361.59;;;9.89;38.36
68197;BME280;55019;49.382;11.358;2023-03-17T08:58:55;96353.53;;;11.38;37.79
68197;BME280;55019;49.382;11.358;2023-03-17T09:01:21;96346.75;;;11.96;36.52
68197;BME280;55019;49.382;11.358;2023-03-17T09:03:49;96353.16;;;11.85;37.64
68197;BME280;55019;49.382;11.358;2023-03-17T09:06:15;96347.09;;;11.93;37.77
68197;BME280;55019;49.382;11.358;2023-03-17T09:08:42;96343.94;;;11.68;36.75
68197;BME280;55019;49.382;11.358;2023-03-17T09:11:17;96351.13;;;11.36;37.52
68197;BME280;55019;49.382;11.358;2023-03-17T09:13:45;96334.72;;;11.43;36.23
68197;BME280;55019;49.382;11.358;2023-03-17T09:16:15;96350.25;;;11.43;36.72
68197;BME280;55019;49.382;11.358;2023-03-17T09:18:43;96352.44;;;11.54;36.43
68197;BME280;55019;49.382;11.358;2023-03-17T09:21:13;96352.50;;;12.20;35.65
68197;BME280;55019;49.382;11.358;2023-03-17T09:23:39;96353.13;;;12.22;35.52
68197;BME280;55019;49.382;11.358;2023-03-17T09:26:06;96351.47;;;11.92;36.95
68197;BME280;55019;49.382;11.358;2023-03-17T09:28:32;96353.03;;;13.09;33.84
68197;BME280;55019;49.382;11.358;2023-03-17T09:31:03;96351.78;;;12.26;35.06
68197;BME280;55019;49.382;11.358;2023-03-17T09:33:29;96353.13;;;12.51;34.62
68197;BME280;55019;49.382;11.358;2023-03-17T09:35:55;96348.47;;;13.74;35.51
68197;BME280;55019;49.382;11.358;2023-03-17T09:38:23;96346.38;;;12.71;35.15
68197;BME280;55019;49.382;11.358;2023-03-17T09:40:57;96344.78;;;12.70;37.40
68197;BME280;55019;49.382;11.358;2023-03-17T09:43:34;96352.59;;;12.91;34.78
68197;BME280;55019;49.382;11.358;2023-03-17T09:49:07;96357.53;;;12.72;34.61
68197;BME280;55019;49.382;11.358;2023-03-17T09:51:34;96352.47;;;13.13;36.50
68197;BME280;55019;49.382;11.358;2023-03-17T09:54:17;96351.06;;;13.74;32.33
68197;BME280;55019;49.382;11.358;2023-03-17T09:56:48;96354.38;;;14.43;33.18
68197;BME280;55019;49.382;11.358;2023-03-17T09:59:33;96353.22;;;14.52;32.81
68197;BME280;55019;49.382;11.358;2023-03-17T10:02:00;96340.94;;;15.40;30.97
68197;BME280;55019;49.382;11.358;2023-03-17T10:04:26;96351.59;;;14.51;30.66
68197;BME280;55019;49.382;11.358;2023-03-17T10:06:59;96339.47;;;15.18;31.49
68197;BME280;55019;49.382;11.358;2023-03-17T10:12:08;96334.66;;;15.15;30.25
68197;BME280;55019;49.382;11.358;2023-03-17T10:14:56;96329.41;;;15.02;30.35
68197;BME280;55019;49.382;11.358;2023-03-17T10:17:40;96325.09;;;15.29;30.33
68197;BME280;55019;49.382;11.358;2023-03-17T10:22:49;96321.91;;;15.33;30.64
68197;BME280;55019;49.382;11.358;2023-03-17T10:25:19;96309.63;;;15.14;30.39
68197;BME280;55019;49.382;11.358;2023-03-17T10:27:51;96316.03;;;15.12;29.40
68197;BME280;55019;49.382;11.358;2023-03-17T10:30:21;96319.31;;;15.33;31.34
68197;BME280;55019;49.382;11.358;2023-03-17T10:32:49;96318.72;;;15.96;29.38
68197;BME280;55019;49.382;11.358;2023-03-17T10:35:16;96306.78;;;16.52;28.43
68197;BME280;55019;49.382;11.358;2023-03-17T10:37:45;96322.50;;;16.26;29.17
68197;BME280;55019;49.382;11.358;2023-03-17T10:40:24;96323.00;;;14.98;30.00
68197;BME280;55019;49.382;11.358;2023-03-17T10:43:02;96324.28;;;16.32;28.57
68197;BME280;55019;49.382;11.358;2023-03-17T10:45:37;96326.84;;;17.45;26.89
68197;BME280;55019;49.382;11.358;2023-03-17T10:48:09;96331.06;;;17.46;28.02
68197;BME280;55019;49.382;11.358;2023-03-17T10:50:37;96325.28;;;18.11;28.22
68197;BME280;55019;49.382;11.358;2023-03-17T10:53:05;96326.19;;;19.72;26.29
68197;BME280;55019;49.382;11.358;2023-03-17T10:58:13;96324.09;;;17.89;25.30
68197;BME280;55019;49.382;11.358;2023-03-17T11:03:22;96315.59;;;18.18;25.65
68197;BME280;55019;49.382;11.358;2023-03-17T11:06:03;96313.94;;;17.50;27.08
68197;BME280;55019;49.382;11.358;2023-03-17T11:08:32;96327.66;;;18.19;26.85
68197;BME280;55019;49.382;11.358;2023-03-17T11:11:04;96310.41;;;18.72;26.30
68197;BME280;55019;49.382;11.358;2023-03-17T11:13:30;96311.00;;;20.03;25.58
68197;BME280;55019;49.382;11.358;2023-03-17T11:16:20;96309.50;;;18.96;27.32
68197;BME280;55019;49.382;11.358;2023-03-17T11:18:51;96312.00;;;18.91;26.74
68197;BME280;55019;49.382;11.358;2023-03-17T11:21:38;96300.56;;;17.89;27.04
68197;BME280;55019;49.382;11.358;2023-03-17T11:24:17;96297.09;;;18.92;26.02
68197;BME280;55019;49.382;11.358;2023-03-17T11:26:57;96294.81;;;18.48;27.14
68197;BME280;55019;49.382;11.358;2023-03-17T11:32:26;96299.31;;;19.35;26.95
68197;BME280;55019;49.382;11.358;2023-03-17T11:50:47;96277.66;;;19.81;24.77
68197;BME280;55019;49.382;11.358;2023-03-17T11:58:31;96271.53;;;21.11;25.74
68197;BME280;55019;49.382;11.358;2023-03-17T12:01:00;96278.72;;;18.80;25.90
68197;BME280;55019;49.382;11.358;2023-03-17T12:03:47;96274.09;;;19.75;27.54
68197;BME280;55019;49.382;11.358;2023-03-17T12:06:27;96276.31;;;19.37;26.29
68197;BME280;55019;49.382;11.358;2023-03-17T12:08:55;96274.19;;;18.15;27.53
68197;BME280;55019;49.382;11.358;2023-03-17T12:11:27;96272.91;;;17.57;27.64
68197;BME280;55019;49.382;11.358;2023-03-17T12:14:24;96265.94;;;18.72;29.08
68197;BME280;55019;49.382;11.358;2023-03-17T12:17:08;96260.09;;;19.70;26.03
68197;BME280;55019;49.382;11.358;2023-03-17T12:19:39;96258.19;;;21.13;29.07
68197;BME280;55019;49.382;11.358;2023-03-17T12:22:16;96252.44;;;21.93;25.75
68197;BME280;55019;49.382;11.358;2023-03-17T12:27:27;96248.91;;;19.63;27.83
68197;BME280;55019;49.382;11.358;2023-03-17T12:29:58;96237.97;;;20.85;28.10
68197;BME280;55019;49.382;11.358;2023-03-17T12:32:42;96241.50;;;19.71;27.23
68197;BME280;55019;49.382;11.358;2023-03-17T12:35:29;96237.59;;;20.54;26.50
68197;BME280;55019;49.382;11.358;2023-03-17T12:38:01;96233.25;;;22.52;24.74
68197;BME280;55019;49.382;11.358;2023-03-17T12:41:00;96235.03;;;21.59;26.44
68197;BME280;55019;49.382;11.358;2023-03-17T12:43:51;96235.22;;;21.08;26.04
68197;BME280;55019;49.382;11.358;2023-03-17T12:50:02;96228.59;;;22.59;23.30
68197;BME280;55019;49.382;11.358;2023-03-17T12:55:15;96225.03;;;21.89;24.00
68197;BME280;55019;49.382;11.358;2023-03-17T12:57:46;96223.16;;;20.29;25.89
68197;BME280;55019;49.382;11.358;2023-03-17T13:00:33;96211.09;;;21.11;24.91
68197;BME280;55019;49.382;11.358;2023-03-17T13:03:06;96213.94;;;21.21;25.42
68197;BME280;55019;49.382;11.358;2023-03-17T13:05:35;96208.16;;;20.01;25.57
68197;BME280;55019;49.382;11.358;2023-03-17T13:08:04;96206.19;;;20.20;25.52
68197;BME280;55019;49.382;11.358;2023-03-17T13:10:41;96205.50;;;22.23;25.34
68197;BME280;55019;49.382;11.358;2023-03-17T13:13:19;96198.38;;;21.03;24.29
68197;BME280;55019;49.382;11.358;2023-03-17T13:20:44;96196.44;;;21.76;24.76
68197;BME280;55019;49.382;11.358;2023-03-17T13:23:18;96189.94;;;20.34;25.71
68197;BME280;55019;49.382;11.358;2023-03-17T13:25:51;96179.72;;;19.98;26.47
68197;BME280;55019;49.382;11.358;2023-03-17T13:28:43;96184.97;;;19.64;28.96
68197;BME280;55019;49.382;11.358;2023-03-17T13:31:32;96180.34;;;19.66;27.23
68197;BME280;55019;49.382;11.358;2023-03-17T13:34:14;96168.44;;;19.86;27.53
68197;BME280;55019;49.382;11.358;2023-03-17T13:36:50;96176.44;;;20.03;28.91
68197;BME280;55019;49.382;11.358;2023-03-17T13:42:01;96158.38;;;19.14;27.81
68197;BME280;55019;49.382;11.358;2023-03-17T13:44:45;96159.72;;;17.99;30.56
68197;BME280;55019;49.382;11.358;2023-03-17T13:49:49;96167.72;;;17.68;29.59
68197;BME280;55019;49.382;11.358;2023-03-17T13:52:26;96168.16;;;17.83;31.58
68197;BME280;55019;49.382;11.358;2023-03-17T13:57:42;96159.66;;;18.71;32.03
68197;BME280;55019;49.382;11.358;2023-03-17T14:02:46;96157.53;;;19.55;31.19
68197;BME280;55019;49.382;11.358;2023-03-17T14:05:27;96152.19;;;18.27;30.83
68197;BME280;55019;49.382;11.358;2023-03-17T14:10:30;96149.72;;;18.32;30.73
68197;BME280;55019;49.382;11.358;2023-03-17T14:13:00;96143.63;;;19.20;31.61
68197;BME280;55019;49.382;11.358;2023-03-17T14:18:22;96144.53;;;18.44;29.99
68197;BME280;55019;49.382;11.358;2023-03-17T14:20:59;96148.69;;;19.03;29.54
68197;BME280;55019;49.382;11.358;2023-03-17T14:23:26;96147.78;;;19.09;30.54
68197;BME280;55019;49.382;11.358;2023-03-17T14:25:59;96147.00;;;17.85;31.59
68197;BME280;55019;49.382;11.358;2023-03-17T14:28:28;96133.78;;;18.34;30.58
68197;BME280;55019;49.382;11.358;2023-03-17T14:31:06;96143.91;;;18.12;31.01